sensor_id;sensor_type;location;lat;lon;timestamp;P1;durP1;ratioP1;P2;durP2;ratioP2
52274;SDS011;38228;50.940;4.024;2022-10-16T00:00:35;3.60;;;0.90;;
52274;SDS011;38228;50.940;4.024;2022-10-16T00:03:01;1.55;;;0.90;;
52274;SDS011;38228;50.940;4.024;2022-10-16T00:05:27;1.00;;;0.73;;
52274;SDS011;38228;50.940;4.024;2022-10-16T00:07:53;2.67;;;0.95;;
52274;SDS011;38228;50.940;4.024;2022-10-16T00:10:19;4.68;;;1.10;;
52274;SDS011;38228;50.940;4.024;2022-10-16T00:12:45;1.95;;;0.77;;
52274;SDS011;38228;50.940;4.024;2022-10-16T00:15:10;2.10;;;0.90;;
52274;SDS011;38228;50.940;4.024;2022-10-16T00:17:36;1.42;;;0.80;;
52274;SDS011;38228;50.940;4.024;2022-10-16T00:20:02;1.98;;;0.80;;
52274;SDS011;38228;50.940;4.024;2022-10-16T00:22:28;1.92;;;0.98;;
52274;SDS011;38228;50.940;4.024;2022-10-16T00:24:54;3.35;;;0.93;;
52274;SDS011;38228;50.940;4.024;2022-10-16T00:27:19;3.00;;;1.10;;
52274;SDS011;38228;50.940;4.024;2022-10-16T00:29:49;2.63;;;0.88;;
52274;SDS011;38228;50.940;4.024;2022-10-16T00:32:15;3.08;;;1.10;;
52274;SDS011;38228;50.940;4.024;2022-10-16T00:34:41;1.60;;;0.75;;
52274;SDS011;38228;50.940;4.024;2022-10-16T00:37:08;1.60;;;0.90;;
52274;SDS011;38228;50.940;4.024;2022-10-16T00:39:33;2.38;;;1.13;;
52274;SDS011;38228;50.940;4.024;2022-10-16T00:41:59;3.17;;;0.90;;
52274;SDS011;38228;50.940;4.024;2022-10-16T00:44:41;2.58;;;0.88;;
52274;SDS011;38228;50.940;4.024;2022-10-16T00:47:09;1.27;;;0.73;;
52274;SDS011;38228;50.940;4.024;2022-10-16T00:49:38;1.52;;;0.93;;
52274;SDS011;38228;50.940;4.024;2022-10-16T00:52:03;5.03;;;0.80;;
52274;SDS011;38228;50.940;4.024;2022-10-16T00:54:31;2.20;;;0.90;;
52274;SDS011;38228;50.940;4.024;2022-10-16T00:56:58;2.10;;;0.98;;
52274;SDS011;38228;50.940;4.024;2022-10-16T00:59:28;2.83;;;0.90;;
52274;SDS011;38228;50.940;4.024;2022-10-16T01:01:55;4.88;;;1.13;;
52274;SDS011;38228;50.940;4.024;2022-10-16T01:04:22;2.80;;;1.02;;
52274;SDS011;38228;50.940;4.024;2022-10-16T01:06:58;3.42;;;1.00;;
52274;SDS011;38228;50.940;4.024;2022-10-16T01:09:31;3.40;;;0.90;;
52274;SDS011;38228;50.940;4.024;2022-10-16T01:12:59;2.97;;;1.13;;
52274;SDS011;38228;50.940;4.024;2022-10-16T01:18:08;5.90;;;1.15;;
52274;SDS011;38228;50.940;4.024;2022-10-16T01:28:48;1.83;;;0.93;;
52274;SDS011;38228;50.940;4.024;2022-10-16T01:31:18;3.92;;;1.23;;
52274;SDS011;38228;50.940;4.024;2022-10-16T01:33:47;2.35;;;1.35;;
52274;SDS011;38228;50.940;4.024;2022-10-16T01:36:21;2.03;;;0.90;;
52274;SDS011;38228;50.940;4.024;2022-10-16T01:38:53;3.72;;;1.15;;
52274;SDS011;38228;50.940;4.024;2022-10-16T01:41:22;3.30;;;1.15;;
52274;SDS011;38228;50.940;4.024;2022-10-16T01:43:56;3.97;;;1.10;;
52274;SDS011;38228;50.940;4.024;2022-10-16T01:48:54;2.40;;;0.95;;
52274;SDS011;38228;50.940;4.024;2022-10-16T01:51:20;3.30;;;1.38;;
52274;SDS011;38228;50.940;4.024;2022-10-16T01:53:49;5.07;;;1.30;;
52274;SDS011;38228;50.940;4.024;2022-10-16T01:56:17;2.67;;;1.30;;
52274;SDS011;38228;50.940;4.024;2022-10-16T01:58:49;3.08;;;1.25;;
52274;SDS011;38228;50.940;4.024;2022-10-16T02:01:21;5.97;;;1.52;;
52274;SDS011;38228;50.940;4.024;2022-10-16T02:03:50;4.25;;;1.40;;
52274;SDS011;38228;50.940;4.024;2022-10-16T02:06:18;2.55;;;1.65;;
52274;SDS011;38228;50.940;4.024;2022-10-16T02:08:44;2.70;;;1.27;;
52274;SDS011;38228;50.940;4.024;2022-10-16T02:11:11;6.43;;;1.73;;
52274;SDS011;38228;50.940;4.024;2022-10-16T02:13:37;3.75;;;1.52;;
52274;SDS011;38228;50.940;4.024;2022-10-16T02:16:10;2.87;;;1.70;;
52274;SDS011;38228;50.940;4.024;2022-10-16T02:18:37;2.92;;;1.33;;
52274;SDS011;38228;50.940;4.024;2022-10-16T02:21:14;5.40;;;1.80;;
52274;SDS011;38228;50.940;4.024;2022-10-16T02:26:35;3.72;;;1.88;;
52274;SDS011;38228;50.940;4.024;2022-10-16T02:29:07;8.00;;;1.83;;
52274;SDS011;38228;50.940;4.024;2022-10-16T02:31:38;2.95;;;1.50;;
52274;SDS011;38228;50.940;4.024;2022-10-16T02:34:08;3.45;;;1.73;;
52274;SDS011;38228;50.940;4.024;2022-10-16T02:36:36;4.50;;;2.10;;
52274;SDS011;38228;50.940;4.024;2022-10-16T02:39:04;2.92;;;1.63;;
52274;SDS011;38228;50.940;4.024;2022-10-16T02:41:31;4.15;;;1.80;;
52274;SDS011;38228;50.940;4.024;2022-10-16T02:43:57;4.00;;;1.90;;
52274;SDS011;38228;50.940;4.024;2022-10-16T02:46:23;3.33;;;1.98;;
52274;SDS011;38228;50.940;4.024;2022-10-16T02:48:48;4.57;;;1.70;;
52274;SDS011;38228;50.940;4.024;2022-10-16T02:51:14;5.95;;;1.90;;
52274;SDS011;38228;50.940;4.024;2022-10-16T02:53:39;3.72;;;1.98;;
52274;SDS011;38228;50.940;4.024;2022-10-16T02:56:05;5.95;;;1.67;;
52274;SDS011;38228;50.940;4.024;2022-10-16T02:58:31;3.55;;;2.00;;
52274;SDS011;38228;50.940;4.024;2022-10-16T03:00:56;3.97;;;1.92;;
52274;SDS011;38228;50.940;4.024;2022-10-16T03:03:22;6.15;;;1.98;;
52274;SDS011;38228;50.940;4.024;2022-10-16T03:05:48;4.90;;;2.13;;
52274;SDS011;38228;50.940;4.024;2022-10-16T03:08:13;4.38;;;1.95;;
52274;SDS011;38228;50.940;4.024;2022-10-16T03:10:39;4.90;;;1.92;;
52274;SDS011;38228;50.940;4.024;2022-10-16T03:13:05;7.15;;;2.17;;
52274;SDS011;38228;50.940;4.024;2022-10-16T03:15:31;4.95;;;2.00;;
52274;SDS011;38228;50.940;4.024;2022-10-16T03:17:59;4.53;;;2.17;;
52274;SDS011;38228;50.940;4.024;2022-10-16T03:20:25;3.88;;;2.40;;
52274;SDS011;38228;50.940;4.024;2022-10-16T03:22:51;5.05;;;2.03;;
52274;SDS011;38228;50.940;4.024;2022-10-16T03:25:17;6.28;;;2.40;;
52274;SDS011;38228;50.940;4.024;2022-10-16T03:27:43;4.70;;;2.00;;
52274;SDS011;38228;50.940;4.024;2022-10-16T03:30:08;4.25;;;1.95;;
52274;SDS011;38228;50.940;4.024;2022-10-16T03:32:34;7.05;;;2.20;;
52274;SDS011;38228;50.940;4.024;2022-10-16T03:35:00;4.63;;;2.00;;
52274;SDS011;38228;50.940;4.024;2022-10-16T03:37:26;3.75;;;2.00;;
52274;SDS011;38228;50.940;4.024;2022-10-16T03:39:51;3.58;;;2.20;;
52274;SDS011;38228;50.940;4.024;2022-10-16T03:42:17;3.95;;;2.50;;
52274;SDS011;38228;50.940;4.024;2022-10-16T03:44:43;4.80;;;2.20;;
52274;SDS011;38228;50.940;4.024;2022-10-16T03:47:09;3.47;;;2.08;;
52274;SDS011;38228;50.940;4.024;2022-10-16T03:49:35;7.43;;;2.13;;
52274;SDS011;38228;50.940;4.024;2022-10-16T03:52:01;7.00;;;2.30;;
52274;SDS011;38228;50.940;4.024;2022-10-16T03:54:26;5.22;;;2.40;;
52274;SDS011;38228;50.940;4.024;2022-10-16T03:56:52;5.90;;;2.35;;
52274;SDS011;38228;50.940;4.024;2022-10-16T03:59:17;5.20;;;2.05;;
52274;SDS011;38228;50.940;4.024;2022-10-16T04:01:43;6.35;;;2.28;;
52274;SDS011;38228;50.940;4.024;2022-10-16T04:04:09;5.53;;;2.40;;
52274;SDS011;38228;50.940;4.024;2022-10-16T04:06:34;5.18;;;2.47;;
52274;SDS011;38228;50.940;4.024;2022-10-16T04:09:00;4.80;;;2.40;;
52274;SDS011;38228;50.940;4.024;2022-10-16T04:11:26;3.92;;;2.30;;
52274;SDS011;38228;50.940;4.024;2022-10-16T04:13:52;4.13;;;2.45;;
52274;SDS011;38228;50.940;4.024;2022-10-16T04:16:17;6.72;;;2.78;;
52274;SDS011;38228;50.940;4.024;2022-10-16T04:18:43;6.03;;;2.38;;
52274;SDS011;38228;50.940;4.024;2022-10-16T04:21:09;5.50;;;2.92;;
52274;SDS011;38228;50.940;4.024;2022-10-16T04:23:35;4.85;;;2.60;;
52274;SDS011;38228;50.940;4.024;2022-10-16T04:26:00;7.72;;;2.63;;
52274;SDS011;38228;50.940;4.024;2022-10-16T04:28:26;6.20;;;2.50;;
52274;SDS011;38228;50.940;4.024;2022-10-16T04:30:52;5.15;;;2.40;;
52274;SDS011;38228;50.940;4.024;2022-10-16T04:33:18;5.40;;;2.45;;
52274;SDS011;38228;50.940;4.024;2022-10-16T04:35:44;5.55;;;2.58;;
52274;SDS011;38228;50.940;4.024;2022-10-16T04:38:09;5.28;;;2.10;;
52274;SDS011;38228;50.940;4.024;2022-10-16T04:40:35;7.95;;;2.70;;
52274;SDS011;38228;50.940;4.024;2022-10-16T04:43:03;8.82;;;2.70;;
52274;SDS011;38228;50.940;4.024;2022-10-16T04:45:29;3.58;;;2.42;;
52274;SDS011;38228;50.940;4.024;2022-10-16T04:47:58;6.60;;;2.78;;
52274;SDS011;38228;50.940;4.024;2022-10-16T04:50:24;3.72;;;2.50;;
52274;SDS011;38228;50.940;4.024;2022-10-16T04:52:50;5.00;;;2.60;;
52274;SDS011;38228;50.940;4.024;2022-10-16T04:55:16;9.70;;;3.00;;
52274;SDS011;38228;50.940;4.024;2022-10-16T04:57:41;5.93;;;2.80;;
52274;SDS011;38228;50.940;4.024;2022-10-16T05:00:07;5.22;;;2.40;;
52274;SDS011;38228;50.940;4.024;2022-10-16T05:02:33;6.72;;;2.65;;
52274;SDS011;38228;50.940;4.024;2022-10-16T05:04:59;5.80;;;2.90;;
52274;SDS011;38228;50.940;4.024;2022-10-16T05:07:25;5.97;;;2.70;;
52274;SDS011;38228;50.940;4.024;2022-10-16T05:09:51;10.95;;;2.67;;
52274;SDS011;38228;50.940;4.024;2022-10-16T05:12:16;8.68;;;2.65;;
52274;SDS011;38228;50.940;4.024;2022-10-16T05:14:42;5.55;;;2.80;;
52274;SDS011;38228;50.940;4.024;2022-10-16T05:17:08;7.35;;;2.80;;
52274;SDS011;38228;50.940;4.024;2022-10-16T05:19:33;7.18;;;2.92;;
52274;SDS011;38228;50.940;4.024;2022-10-16T05:21:59;7.90;;;2.60;;
52274;SDS011;38228;50.940;4.024;2022-10-16T05:24:25;9.40;;;2.78;;
52274;SDS011;38228;50.940;4.024;2022-10-16T05:26:50;13.25;;;3.10;;
52274;SDS011;38228;50.940;4.024;2022-10-16T05:29:16;7.10;;;3.05;;
52274;SDS011;38228;50.940;4.024;2022-10-16T05:31:42;7.43;;;2.55;;
52274;SDS011;38228;50.940;4.024;2022-10-16T05:34:07;8.77;;;2.70;;
52274;SDS011;38228;50.940;4.024;2022-10-16T05:36:33;5.25;;;2.78;;
52274;SDS011;38228;50.940;4.024;2022-10-16T05:38:59;7.25;;;2.92;;
52274;SDS011;38228;50.940;4.024;2022-10-16T05:41:24;5.70;;;2.60;;
52274;SDS011;38228;50.940;4.024;2022-10-16T05:43:51;6.80;;;2.50;;
52274;SDS011;38228;50.940;4.024;2022-10-16T05:46:17;6.57;;;3.08;;
52274;SDS011;38228;50.940;4.024;2022-10-16T05:48:43;7.15;;;2.80;;
52274;SDS011;38228;50.940;4.024;2022-10-16T05:51:10;7.40;;;2.72;;
52274;SDS011;38228;50.940;4.024;2022-10-16T05:53:38;9.50;;;2.50;;
52274;SDS011;38228;50.940;4.024;2022-10-16T05:56:04;12.65;;;2.75;;
52274;SDS011;38228;50.940;4.024;2022-10-16T05:58:32;8.95;;;2.70;;
52274;SDS011;38228;50.940;4.024;2022-10-16T06:01:04;8.35;;;2.65;;
52274;SDS011;38228;50.940;4.024;2022-10-16T06:03:32;9.95;;;2.95;;
52274;SDS011;38228;50.940;4.024;2022-10-16T06:05:58;7.28;;;2.65;;
52274;SDS011;38228;50.940;4.024;2022-10-16T06:08:24;7.22;;;2.35;;
52274;SDS011;38228;50.940;4.024;2022-10-16T06:10:59;9.60;;;2.80;;
52274;SDS011;38228;50.940;4.024;2022-10-16T06:13:26;6.35;;;2.53;;
52274;SDS011;38228;50.940;4.024;2022-10-16T06:15:51;5.82;;;2.42;;
52274;SDS011;38228;50.940;4.024;2022-10-16T06:18:17;10.65;;;3.10;;
52274;SDS011;38228;50.940;4.024;2022-10-16T06:20:42;8.65;;;2.40;;
52274;SDS011;38228;50.940;4.024;2022-10-16T06:23:08;8.15;;;2.80;;
52274;SDS011;38228;50.940;4.024;2022-10-16T06:25:34;6.97;;;2.70;;
52274;SDS011;38228;50.940;4.024;2022-10-16T06:27:59;6.00;;;2.50;;
52274;SDS011;38228;50.940;4.024;2022-10-16T06:30:25;6.03;;;2.70;;
52274;SDS011;38228;50.940;4.024;2022-10-16T06:32:50;6.95;;;2.50;;
52274;SDS011;38228;50.940;4.024;2022-10-16T06:35:16;6.85;;;3.08;;
52274;SDS011;38228;50.940;4.024;2022-10-16T06:37:42;6.75;;;2.63;;
52274;SDS011;38228;50.940;4.024;2022-10-16T06:40:07;8.20;;;2.95;;
52274;SDS011;38228;50.940;4.024;2022-10-16T06:42:33;7.35;;;2.92;;
52274;SDS011;38228;50.940;4.024;2022-10-16T06:44:59;7.82;;;3.00;;
52274;SDS011;38228;50.940;4.024;2022-10-16T06:47:24;5.72;;;2.35;;
52274;SDS011;38228;50.940;4.024;2022-10-16T06:49:50;6.97;;;2.75;;
52274;SDS011;38228;50.940;4.024;2022-10-16T06:52:16;6.75;;;3.30;;
52274;SDS011;38228;50.940;4.024;2022-10-16T06:54:41;5.30;;;2.28;;
52274;SDS011;38228;50.940;4.024;2022-10-16T06:57:07;5.15;;;3.05;;
52274;SDS011;38228;50.940;4.024;2022-10-16T06:59:32;6.47;;;2.65;;
52274;SDS011;38228;50.940;4.024;2022-10-16T07:01:58;6.65;;;2.60;;
52274;SDS011;38228;50.940;4.024;2022-10-16T07:04:24;13.02;;;2.83;;
52274;SDS011;38228;50.940;4.024;2022-10-16T07:06:49;5.50;;;2.47;;
52274;SDS011;38228;50.940;4.024;2022-10-16T07:09:16;7.15;;;2.30;;
52274;SDS011;38228;50.940;4.024;2022-10-16T07:11:42;5.07;;;2.70;;
52274;SDS011;38228;50.940;4.024;2022-10-16T07:14:18;7.65;;;2.88;;
52274;SDS011;38228;50.940;4.024;2022-10-16T07:16:46;6.40;;;2.50;;
52274;SDS011;38228;50.940;4.024;2022-10-16T07:19:12;5.80;;;2.67;;
52274;SDS011;38228;50.940;4.024;2022-10-16T07:21:40;7.63;;;2.75;;
52274;SDS011;38228;50.940;4.024;2022-10-16T07:24:10;5.55;;;2.45;;
52274;SDS011;38228;50.940;4.024;2022-10-16T07:26:38;9.98;;;2.50;;
52274;SDS011;38228;50.940;4.024;2022-10-16T07:29:04;4.15;;;2.20;;
52274;SDS011;38228;50.940;4.024;2022-10-16T07:31:32;5.50;;;2.15;;
52274;SDS011;38228;50.940;4.024;2022-10-16T07:33:58;6.38;;;2.63;;
52274;SDS011;38228;50.940;4.024;2022-10-16T07:36:24;6.68;;;2.47;;
52274;SDS011;38228;50.940;4.024;2022-10-16T07:38:50;5.63;;;2.35;;
52274;SDS011;38228;50.940;4.024;2022-10-16T07:41:16;10.48;;;2.83;;
52274;SDS011;38228;50.940;4.024;2022-10-16T07:43:47;5.32;;;2.30;;
52274;SDS011;38228;50.940;4.024;2022-10-16T07:46:16;6.65;;;2.20;;
52274;SDS011;38228;50.940;4.024;2022-10-16T07:48:43;6.25;;;2.60;;
52274;SDS011;38228;50.940;4.024;2022-10-16T07:51:12;8.00;;;2.45;;
52274;SDS011;38228;50.940;4.024;2022-10-16T07:53:39;5.15;;;2.13;;
52274;SDS011;38228;50.940;4.024;2022-10-16T07:56:05;6.97;;;2.08;;
52274;SDS011;38228;50.940;4.024;2022-10-16T07:58:32;6.50;;;2.50;;
52274;SDS011;38228;50.940;4.024;2022-10-16T08:01:02;6.03;;;2.33;;
52274;SDS011;38228;50.940;4.024;2022-10-16T08:03:29;6.32;;;2.30;;
52274;SDS011;38228;50.940;4.024;2022-10-16T08:05:56;4.80;;;2.40;;
52274;SDS011;38228;50.940;4.024;2022-10-16T08:08:23;9.48;;;2.20;;
52274;SDS011;38228;50.940;4.024;2022-10-16T08:10:48;5.75;;;1.77;;
52274;SDS011;38228;50.940;4.024;2022-10-16T08:13:14;7.18;;;2.40;;
52274;SDS011;38228;50.940;4.024;2022-10-16T08:15:41;5.45;;;1.90;;
52274;SDS011;38228;50.940;4.024;2022-10-16T08:18:07;7.85;;;2.63;;
52274;SDS011;38228;50.940;4.024;2022-10-16T08:20:34;8.50;;;2.17;;
52274;SDS011;38228;50.940;4.024;2022-10-16T08:23:00;6.25;;;1.98;;
52274;SDS011;38228;50.940;4.024;2022-10-16T08:25:26;4.57;;;1.90;;
52274;SDS011;38228;50.940;4.024;2022-10-16T08:27:52;4.28;;;1.80;;
52274;SDS011;38228;50.940;4.024;2022-10-16T08:30:18;10.40;;;1.63;;
52274;SDS011;38228;50.940;4.024;2022-10-16T08:32:45;5.72;;;1.58;;
52274;SDS011;38228;50.940;4.024;2022-10-16T08:35:12;5.22;;;2.08;;
52274;SDS011;38228;50.940;4.024;2022-10-16T08:37:39;5.72;;;1.80;;
52274;SDS011;38228;50.940;4.024;2022-10-16T08:40:05;8.52;;;1.95;;
52274;SDS011;38228;50.940;4.024;2022-10-16T08:50:54;5.72;;;1.92;;
52274;SDS011;38228;50.940;4.024;2022-10-16T08:53:24;6.07;;;1.92;;
52274;SDS011;38228;50.940;4.024;2022-10-16T08:55:55;6.78;;;2.05;;
52274;SDS011;38228;50.940;4.024;2022-10-16T08:58:21;10.25;;;1.80;;
52274;SDS011;38228;50.940;4.024;2022-10-16T09:00:54;6.05;;;1.63;;
52274;SDS011;38228;50.940;4.024;2022-10-16T09:06:17;6.78;;;2.00;;
52274;SDS011;38228;50.940;4.024;2022-10-16T09:19:50;5.22;;;1.48;;
52274;SDS011;38228;50.940;4.024;2022-10-16T09:22:18;10.48;;;1.77;;
52274;SDS011;38228;50.940;4.024;2022-10-16T09:24:51;6.07;;;1.52;;
52274;SDS011;38228;50.940;4.024;2022-10-16T09:27:17;6.80;;;1.65;;
52274;SDS011;38228;50.940;4.024;2022-10-16T09:29:42;12.48;;;1.70;;
52274;SDS011;38228;50.940;4.024;2022-10-16T09:32:12;7.55;;;1.45;;
52274;SDS011;38228;50.940;4.024;2022-10-16T09:34:45;7.00;;;1.42;;
52274;SDS011;38228;50.940;4.024;2022-10-16T09:37:16;7.65;;;1.52;;
52274;SDS011;38228;50.940;4.024;2022-10-16T09:39:47;6.30;;;1.35;;
52274;SDS011;38228;50.940;4.024;2022-10-16T09:42:16;4.35;;;1.52;;
52274;SDS011;38228;50.940;4.024;2022-10-16T09:44:47;5.45;;;1.27;;
52274;SDS011;38228;50.940;4.024;2022-10-16T09:47:16;6.53;;;1.70;;
52274;SDS011;38228;50.940;4.024;2022-10-16T09:52:27;7.72;;;1.77;;
52274;SDS011;38228;50.940;4.024;2022-10-16T09:54:55;6.35;;;2.08;;
52274;SDS011;38228;50.940;4.024;2022-10-16T09:57:22;8.68;;;1.60;;
52274;SDS011;38228;50.940;4.024;2022-10-16T09:59:52;6.88;;;1.20;;
52274;SDS011;38228;50.940;4.024;2022-10-16T10:02:24;7.43;;;1.52;;
52274;SDS011;38228;50.940;4.024;2022-10-16T10:04:59;10.13;;;1.63;;
52274;SDS011;38228;50.940;4.024;2022-10-16T10:07:30;7.88;;;1.73;;
52274;SDS011;38228;50.940;4.024;2022-10-16T10:12:28;6.93;;;1.60;;
52274;SDS011;38228;50.940;4.024;2022-10-16T10:15:04;10.88;;;1.55;;
52274;SDS011;38228;50.940;4.024;2022-10-16T10:22:47;5.95;;;1.77;;
52274;SDS011;38228;50.940;4.024;2022-10-16T10:35:26;5.65;;;1.40;;
52274;SDS011;38228;50.940;4.024;2022-10-16T10:46:05;6.35;;;1.70;;
52274;SDS011;38228;50.940;4.024;2022-10-16T10:51:47;6.82;;;1.65;;
52274;SDS011;38228;50.940;4.024;2022-10-16T10:57:06;7.72;;;1.50;;
52274;SDS011;38228;50.940;4.024;2022-10-16T10:59:45;5.53;;;1.58;;
52274;SDS011;38228;50.940;4.024;2022-10-16T11:08:01;6.40;;;1.55;;
52274;SDS011;38228;50.940;4.024;2022-10-16T11:10:49;6.25;;;1.58;;
52274;SDS011;38228;50.940;4.024;2022-10-16T11:13:26;3.67;;;1.02;;
52274;SDS011;38228;50.940;4.024;2022-10-16T11:16:11;6.43;;;1.50;;
52274;SDS011;38228;50.940;4.024;2022-10-16T11:18:49;7.35;;;1.27;;
52274;SDS011;38228;50.940;4.024;2022-10-16T11:21:18;6.63;;;1.40;;
52274;SDS011;38228;50.940;4.024;2022-10-16T11:23:51;8.68;;;1.38;;
52274;SDS011;38228;50.940;4.024;2022-10-16T11:26:29;8.13;;;1.48;;
52274;SDS011;38228;50.940;4.024;2022-10-16T11:28:59;8.68;;;1.27;;
52274;SDS011;38228;50.940;4.024;2022-10-16T11:31:36;7.70;;;1.63;;
52274;SDS011;38228;50.940;4.024;2022-10-16T11:39:48;7.93;;;1.45;;
52274;SDS011;38228;50.940;4.024;2022-10-16T11:42:21;7.28;;;1.10;;
52274;SDS011;38228;50.940;4.024;2022-10-16T11:48:15;5.90;;;1.30;;
52274;SDS011;38228;50.940;4.024;2022-10-16T11:51:05;6.05;;;1.02;;
52274;SDS011;38228;50.940;4.024;2022-10-16T11:56:43;8.45;;;1.42;;
52274;SDS011;38228;50.940;4.024;2022-10-16T11:59:15;6.13;;;1.13;;
52274;SDS011;38228;50.940;4.024;2022-10-16T12:01:58;5.05;;;1.02;;
52274;SDS011;38228;50.940;4.024;2022-10-16T12:04:46;8.23;;;1.80;;
52274;SDS011;38228;50.940;4.024;2022-10-16T12:07:19;5.85;;;1.38;;
52274;SDS011;38228;50.940;4.024;2022-10-16T12:09:49;3.70;;;1.27;;
52274;SDS011;38228;50.940;4.024;2022-10-16T12:15:15;5.32;;;1.30;;
52274;SDS011;38228;50.940;4.024;2022-10-16T12:17:45;6.35;;;1.30;;
52274;SDS011;38228;50.940;4.024;2022-10-16T12:22:40;4.30;;;1.23;;
52274;SDS011;38228;50.940;4.024;2022-10-16T12:25:32;6.18;;;1.13;;
52274;SDS011;38228;50.940;4.024;2022-10-16T12:30:28;8.25;;;1.33;;
52274;SDS011;38228;50.940;4.024;2022-10-16T12:32:56;5.28;;;1.17;;
52274;SDS011;38228;50.940;4.024;2022-10-16T12:35:29;4.13;;;1.10;;
52274;SDS011;38228;50.940;4.024;2022-10-16T12:38:05;3.67;;;0.80;;
52274;SDS011;38228;50.940;4.024;2022-10-16T12:40:41;3.80;;;0.98;;
52274;SDS011;38228;50.940;4.024;2022-10-16T12:48:41;4.45;;;1.15;;
52274;SDS011;38228;50.940;4.024;2022-10-16T12:51:21;4.55;;;1.20;;
52274;SDS011;38228;50.940;4.024;2022-10-16T12:54:03;4.30;;;0.70;;
52274;SDS011;38228;50.940;4.024;2022-10-16T13:27:43;7.72;;;0.80;;
52274;SDS011;38228;50.940;4.024;2022-10-16T13:30:32;2.88;;;1.08;;
52274;SDS011;38228;50.940;4.024;2022-10-16T13:33:04;3.83;;;0.77;;
52274;SDS011;38228;50.940;4.024;2022-10-16T13:35:35;3.42;;;0.93;;
52274;SDS011;38228;50.940;4.024;2022-10-16T13:38:14;4.78;;;1.02;;
52274;SDS011;38228;50.940;4.024;2022-10-16T13:40:53;4.53;;;1.08;;
52274;SDS011;38228;50.940;4.024;2022-10-16T13:43:28;4.75;;;0.90;;
52274;SDS011;38228;50.940;4.024;2022-10-16T13:46:01;4.00;;;1.10;;
52274;SDS011;38228;50.940;4.024;2022-10-16T13:48:32;3.97;;;1.00;;
52274;SDS011;38228;50.940;4.024;2022-10-16T13:51:02;3.42;;;0.75;;
52274;SDS011;38228;50.940;4.024;2022-10-16T13:53:36;6.88;;;1.30;;
52274;SDS011;38228;50.940;4.024;2022-10-16T13:56:03;2.45;;;1.02;;
52274;SDS011;38228;50.940;4.024;2022-10-16T13:58:31;4.72;;;1.15;;
52274;SDS011;38228;50.940;4.024;2022-10-16T14:00:58;2.90;;;1.20;;
52274;SDS011;38228;50.940;4.024;2022-10-16T14:03:30;3.90;;;1.08;;
52274;SDS011;38228;50.940;4.024;2022-10-16T14:06:01;3.88;;;0.80;;
52274;SDS011;38228;50.940;4.024;2022-10-16T14:08:31;4.30;;;0.80;;
52274;SDS011;38228;50.940;4.024;2022-10-16T14:10:58;3.05;;;0.85;;
52274;SDS011;38228;50.940;4.024;2022-10-16T14:13:34;4.50;;;0.80;;
52274;SDS011;38228;50.940;4.024;2022-10-16T14:16:07;2.33;;;0.60;;
52274;SDS011;38228;50.940;4.024;2022-10-16T14:18:35;3.25;;;1.00;;
52274;SDS011;38228;50.940;4.024;2022-10-16T14:21:07;2.72;;;0.70;;
52274;SDS011;38228;50.940;4.024;2022-10-16T14:23:38;3.42;;;0.80;;
52274;SDS011;38228;50.940;4.024;2022-10-16T14:28:34;3.05;;;0.95;;
52274;SDS011;38228;50.940;4.024;2022-10-16T14:31:01;5.70;;;1.10;;
52274;SDS011;38228;50.940;4.024;2022-10-16T14:33:40;4.10;;;1.10;;
52274;SDS011;38228;50.940;4.024;2022-10-16T14:36:11;3.28;;;0.90;;
52274;SDS011;38228;50.940;4.024;2022-10-16T14:38:39;3.17;;;0.95;;
52274;SDS011;38228;50.940;4.024;2022-10-16T14:41:14;4.97;;;1.40;;
52274;SDS011;38228;50.940;4.024;2022-10-16T14:43:41;4.32;;;1.10;;
52274;SDS011;38228;50.940;4.024;2022-10-16T14:48:45;2.97;;;0.70;;
52274;SDS011;38228;50.940;4.024;2022-10-16T14:51:16;3.25;;;1.00;;
52274;SDS011;38228;50.940;4.024;2022-10-16T14:53:43;5.38;;;1.10;;
52274;SDS011;38228;50.940;4.024;2022-10-16T14:56:17;3.92;;;1.00;;
52274;SDS011;38228;50.940;4.024;2022-10-16T14:58:49;7.85;;;1.30;;
52274;SDS011;38228;50.940;4.024;2022-10-16T15:01:16;4.65;;;1.02;;
52274;SDS011;38228;50.940;4.024;2022-10-16T15:03:41;3.67;;;1.30;;
52274;SDS011;38228;50.940;4.024;2022-10-16T15:06:11;6.78;;;1.30;;
52274;SDS011;38228;50.940;4.024;2022-10-16T15:08:37;3.97;;;1.27;;
52274;SDS011;38228;50.940;4.024;2022-10-16T15:11:03;4.05;;;1.05;;
52274;SDS011;38228;50.940;4.024;2022-10-16T15:13:30;3.75;;;1.20;;
52274;SDS011;38228;50.940;4.024;2022-10-16T15:15:55;3.00;;;1.20;;
52274;SDS011;38228;50.940;4.024;2022-10-16T15:18:21;5.90;;;1.95;;
52274;SDS011;38228;50.940;4.024;2022-10-16T15:20:48;5.00;;;2.35;;
52274;SDS011;38228;50.940;4.024;2022-10-16T15:23:16;6.35;;;1.95;;
52274;SDS011;38228;50.940;4.024;2022-10-16T15:25:44;4.05;;;1.50;;
52274;SDS011;38228;50.940;4.024;2022-10-16T15:28:11;7.95;;;2.00;;
52274;SDS011;38228;50.940;4.024;2022-10-16T15:30:38;6.70;;;1.98;;
52274;SDS011;38228;50.940;4.024;2022-10-16T15:33:05;5.43;;;1.40;;
52274;SDS011;38228;50.940;4.024;2022-10-16T15:35:36;6.65;;;1.70;;
52274;SDS011;38228;50.940;4.024;2022-10-16T15:38:01;4.57;;;1.60;;
52274;SDS011;38228;50.940;4.024;2022-10-16T15:40:27;3.92;;;1.50;;
52274;SDS011;38228;50.940;4.024;2022-10-16T15:42:53;4.78;;;2.20;;
52274;SDS011;38228;50.940;4.024;2022-10-16T15:45:18;6.25;;;2.97;;
52274;SDS011;38228;50.940;4.024;2022-10-16T15:47:44;5.50;;;2.20;;
52274;SDS011;38228;50.940;4.024;2022-10-16T15:50:11;7.30;;;2.55;;
52274;SDS011;38228;50.940;4.024;2022-10-16T15:52:39;5.10;;;2.42;;
52274;SDS011;38228;50.940;4.024;2022-10-16T15:55:08;6.45;;;3.17;;
52274;SDS011;38228;50.940;4.024;2022-10-16T15:57:37;5.68;;;2.45;;
52274;SDS011;38228;50.940;4.024;2022-10-16T16:00:05;8.48;;;2.80;;
52274;SDS011;38228;50.940;4.024;2022-10-16T16:02:32;11.05;;;3.10;;
52274;SDS011;38228;50.940;4.024;2022-10-16T16:04:58;6.93;;;3.15;;
52274;SDS011;38228;50.940;4.024;2022-10-16T16:07:23;9.88;;;3.97;;
52274;SDS011;38228;50.940;4.024;2022-10-16T16:09:49;6.07;;;3.15;;
52274;SDS011;38228;50.940;4.024;2022-10-16T16:12:15;7.13;;;2.58;;
52274;SDS011;38228;50.940;4.024;2022-10-16T16:14:40;7.03;;;2.60;;
52274;SDS011;38228;50.940;4.024;2022-10-16T16:17:06;8.13;;;3.17;;
52274;SDS011;38228;50.940;4.024;2022-10-16T16:19:32;7.75;;;3.17;;
52274;SDS011;38228;50.940;4.024;2022-10-16T16:21:58;8.20;;;2.50;;
52274;SDS011;38228;50.940;4.024;2022-10-16T16:24:23;10.30;;;2.83;;
52274;SDS011;38228;50.940;4.024;2022-10-16T16:26:49;10.52;;;2.28;;
52274;SDS011;38228;50.940;4.024;2022-10-16T16:29:15;9.23;;;2.47;;
52274;SDS011;38228;50.940;4.024;2022-10-16T16:31:41;6.60;;;2.72;;
52274;SDS011;38228;50.940;4.024;2022-10-16T16:34:08;5.10;;;2.75;;
52274;SDS011;38228;50.940;4.024;2022-10-16T16:36:34;4.65;;;2.10;;
52274;SDS011;38228;50.940;4.024;2022-10-16T16:39:00;5.50;;;2.22;;
52274;SDS011;38228;50.940;4.024;2022-10-16T16:41:27;6.95;;;2.70;;
52274;SDS011;38228;50.940;4.024;2022-10-16T16:43:54;7.85;;;3.25;;
52274;SDS011;38228;50.940;4.024;2022-10-16T16:46:25;9.90;;;3.17;;
52274;SDS011;38228;50.940;4.024;2022-10-16T16:48:51;6.13;;;2.90;;
52274;SDS011;38228;50.940;4.024;2022-10-16T16:51:20;20.08;;;12.85;;
52274;SDS011;38228;50.940;4.024;2022-10-16T16:53:47;12.13;;;4.53;;
52274;SDS011;38228;50.940;4.024;2022-10-16T16:56:14;9.23;;;2.38;;
52274;SDS011;38228;50.940;4.024;2022-10-16T16:58:40;7.55;;;2.47;;
52274;SDS011;38228;50.940;4.024;2022-10-16T17:01:06;7.43;;;3.17;;
52274;SDS011;38228;50.940;4.024;2022-10-16T17:03:34;8.32;;;3.22;;
52274;SDS011;38228;50.940;4.024;2022-10-16T17:06:01;5.05;;;3.30;;
52274;SDS011;38228;50.940;4.024;2022-10-16T17:08:32;14.13;;;4.53;;
52274;SDS011;38228;50.940;4.024;2022-10-16T17:11:01;10.73;;;3.85;;
52274;SDS011;38228;50.940;4.024;2022-10-16T17:13:29;9.10;;;3.72;;
52274;SDS011;38228;50.940;4.024;2022-10-16T17:15:56;9.80;;;3.53;;